Time;durP1;ratioP1;P1;durP2;ratioP2;P2;SDS_P1;SDS_P2;PMS_P1;PMS_P2;Temp;Humidity;BMP_temperature;BMP_pressure;BME280_temperature;BME280_humidity;BME280_pressure;Samples;Min_cycle;Max_cycle;Signal;HPM_P1;HPM_P2
2022/02/28 00:01:28;;;;;;;6.03;2.27;;;2.30;99.90;;;;;;4990039;28;20734;-85
2022/02/28 00:03:57;;;;;;;6.57;2.27;;;2.30;99.90;;;;;;4984900;28;20046;-81
2022/02/28 00:06:24;;;;;;;8.83;2.40;;;2.20;99.90;;;;;;4959219;28;20077;-81
2022/02/28 00:08:52;;;;;;;5.03;1.80;;;2.20;99.90;;;;;;4952575;28;20042;-85
2022/02/28 00:11:20;;;;;;;5.10;1.80;;;2.10;99.90;;;;;;4970289;28;20033;-83
2022/02/28 00:13:47;;;;;;;6.43;1.83;;;2.10;99.90;;;;;;4959871;28;20026;-85
2022/02/28 00:16:14;;;;;;;4.57;1.43;;;2.10;99.90;;;;;;4956028;28;20039;-81
2022/02/28 00:18:41;;;;;;;4.40;1.60;;;2.00;99.90;;;;;;4986532;28;20030;-81
2022/02/28 00:21:07;;;;;;;4.53;1.70;;;2.00;99.90;;;;;;4963681;28;20037;-81
2022/02/28 00:23:34;;;;;;;4.93;2.27;;;2.00;99.90;;;;;;4942971;28;20062;-80
2022/02/28 00:26:04;;;;;;;6.23;2.43;;;2.00;99.90;;;;;;4976062;28;20049;-80
2022/02/28 00:28:35;;;;;;;6.27;2.70;;;2.00;99.90;;;;;;4986191;28;20043;-81
2022/02/28 00:31:02;;;;;;;7.30;2.80;;;2.00;99.90;;;;;;4959144;28;20414;-80
2022/02/28 00:33:29;;;;;;;6.33;2.50;;;2.10;99.90;;;;;;4940916;28;20042;-80
2022/02/28 00:35:55;;;;;;;9.50;2.60;;;2.10;99.90;;;;;;4955654;28;20054;-81
2022/02/28 00:38:23;;;;;;;5.23;2.07;;;2.10;99.90;;;;;;4940256;28;20050;-80
2022/02/28 00:40:49;;;;;;;4.33;2.00;;;2.10;99.90;;;;;;4944461;28;20038;-81
2022/02/28 00:43:16;;;;;;;6.07;2.30;;;2.10;99.90;;;;;;4946719;28;20042;-81
2022/02/28 00:45:43;;;;;;;6.77;2.90;;;2.10;99.90;;;;;;4989071;28;20394;-80
2022/02/28 00:48:10;;;;;;;4.00;1.83;;;2.10;99.90;;;;;;4954951;28;20529;-81
2022/02/28 00:50:37;;;;;;;4.70;2.03;;;2.10;99.90;;;;;;4954931;28;20053;-81
2022/02/28 00:53:04;;;;;;;4.00;2.30;;;2.10;99.90;;;;;;4962115;28;20046;-80
2022/02/28 00:55:31;;;;;;;5.40;1.87;;;2.10;99.90;;;;;;4971410;28;20386;-81
2022/02/28 00:57:58;;;;;;;6.83;2.60;;;2.10;99.90;;;;;;4970798;28;20046;-81
2022/02/28 01:00:27;;;;;;;7.80;2.80;;;2.00;99.90;;;;;;4955240;28;20378;-81
2022/02/28 01:02:54;;;;;;;5.43;2.10;;;2.00;99.90;;;;;;4956114;28;20061;-81
2022/02/28 01:05:23;;;;;;;5.90;2.50;;;2.00;99.90;;;;;;4957153;28;20037;-81
2022/02/28 01:07:50;;;;;;;7.70;2.53;;;2.00;99.90;;;;;;4958267;28;20058;-81
2022/02/28 01:10:19;;;;;;;4.13;1.93;;;2.00;99.90;;;;;;4968905;28;20026;-81
2022/02/28 01:12:46;;;;;;;7.00;2.53;;;2.00;99.90;;;;;;4957689;28;20482;-81
2022/02/28 01:15:13;;;;;;;5.53;2.90;;;1.90;99.90;;;;;;4956009;28;20037;-81
2022/02/28 01:17:40;;;;;;;6.60;2.60;;;1.90;99.90;;;;;;4956172;28;20043;-81
2022/02/28 01:20:08;;;;;;;7.50;3.00;;;1.90;99.90;;;;;;4984501;28;20029;-81
2022/02/28 01:22:35;;;;;;;5.23;2.33;;;1.90;99.90;;;;;;4973094;28;20030;-81
2022/02/28 01:25:02;;;;;;;9.57;2.77;;;1.90;99.90;;;;;;4960461;28;20494;-81
2022/02/28 01:27:29;;;;;;;6.83;2.67;;;1.90;99.90;;;;;;4928728;28;20046;-81
2022/02/28 01:29:55;;;;;;;5.97;3.30;;;1.90;99.90;;;;;;4957100;28;20057;-81
2022/02/28 01:32:22;;;;;;;6.57;3.33;;;1.90;99.90;;;;;;4958543;28;20041;-81
2022/02/28 01:34:49;;;;;;;9.10;3.93;;;1.80;99.90;;;;;;4959048;28;20493;-81
2022/02/28 01:37:16;;;;;;;8.10;3.60;;;1.90;99.90;;;;;;4953799;28;20042;-81
2022/02/28 01:39:45;;;;;;;7.37;3.30;;;1.90;99.90;;;;;;4954163;28;20045;-81
2022/02/28 01:42:14;;;;;;;7.77;4.00;;;1.90;99.90;;;;;;4986806;28;20042;-81
2022/02/28 01:44:41;;;;;;;6.63;3.40;;;1.90;99.90;;;;;;4972244;28;20045;-81
2022/02/28 01:47:09;;;;;;;11.97;4.53;;;1.90;99.90;;;;;;4975930;28;20030;-81
2022/02/28 01:49:36;;;;;;;8.67;4.03;;;1.90;99.90;;;;;;4985039;28;20037;-81
2022/02/28 01:52:03;;;;;;;7.63;3.40;;;1.90;99.90;;;;;;4940055;28;20057;-81
2022/02/28 01:54:30;;;;;;;8.33;3.03;;;2.00;99.90;;;;;;4972024;28;20041;-81
2022/02/28 01:56:56;;;;;;;8.30;3.90;;;1.90;99.90;;;;;;4954941;28;20028;-81
2022/02/28 01:59:23;;;;;;;6.60;3.80;;;1.90;99.90;;;;;;4959828;28;20042;-81
2022/02/28 02:01:50;;;;;;;5.90;3.17;;;1.90;99.90;;;;;;4956369;28;20030;-82
2022/02/28 02:04:16;;;;;;;7.17;2.93;;;1.90;99.90;;;;;;4953364;28;20042;-81
2022/02/28 02:06:44;;;;;;;7.33;3.57;;;1.80;99.90;;;;;;4969792;28;20058;-82
2022/02/28 02:09:12;;;;;;;10.00;3.80;;;1.80;99.90;;;;;;4940120;28;20044;-81
2022/02/28 02:11:40;;;;;;;9.53;4.20;;;1.80;99.90;;;;;;4968579;28;20038;-81
2022/02/28 02:14:09;;;;;;;8.40;4.33;;;1.80;99.90;;;;;;4940085;28;20053;-81
2022/02/28 02:16:37;;;;;;;9.90;3.93;;;1.70;99.90;;;;;;4958846;28;20497;-81
2022/02/28 02:19:04;;;;;;;9.40;3.90;;;1.70;99.90;;;;;;4941922;28;20046;-81
2022/02/28 02:21:31;;;;;;;9.07;3.70;;;1.70;99.90;;;;;;4939101;28;20066;-81
2022/02/28 02:23:57;;;;;;;10.40;4.03;;;1.70;99.90;;;;;;4967454;28;20034;-81
2022/02/28 02:26:24;;;;;;;8.20;3.83;;;1.70;99.90;;;;;;4978930;28;20387;-81
2022/02/28 02:28:50;;;;;;;11.17;4.10;;;1.70;99.90;;;;;;4937720;28;20050;-82
2022/02/28 02:31:17;;;;;;;9.47;4.63;;;1.70;99.90;;;;;;4938073;28;20034;-81
2022/02/28 02:33:52;;;;;;;8.83;4.60;;;1.70;99.90;;;;;;4970362;28;20042;-82
2022/02/28 02:36:19;;;;;;;10.50;4.63;;;1.70;99.90;;;;;;4952451;28;20042;-81
2022/02/28 02:38:46;;;;;;;10.07;4.00;;;1.70;99.90;;;;;;4904745;28;20050;-82
2022/02/28 02:41:20;;;;;;;9.27;4.80;;;1.70;99.90;;;;;;4954022;28;20390;-81
2022/02/28 02:43:50;;;;;;;7.10;3.67;;;1.70;99.90;;;;;;4924384;28;21378;-81
2022/02/28 02:46:19;;;;;;;9.90;4.37;;;1.70;99.90;;;;;;4952727;28;20506;-81
2022/02/28 02:49:19;;;;;;;9.80;4.37;;;1.70;99.90;;;;;;4939690;28;20049;-82
2022/02/28 02:51:55;;;;;;;11.03;4.43;;;1.60;99.90;;;;;;4936639;28;20383;-81
2022/02/28 02:54:26;;;;;;;8.07;4.13;;;1.60;99.90;;;;;;4956529;28;20049;-81
2022/02/28 02:57:00;;;;;;;8.67;3.87;;;1.60;99.90;;;;;;4952019;28;20062;-81
2022/02/28 02:59:29;;;;;;;8.23;3.13;;;1.60;99.90;;;;;;4956363;28;20037;-82
2022/02/28 03:01:57;;;;;;;9.13;3.93;;;1.60;99.90;;;;;;4958783;28;20165;-82
2022/02/28 03:04:25;;;;;;;7.10;3.77;;;1.60;99.90;;;;;;4955519;28;20395;-82
2022/02/28 03:07:01;;;;;;;6.50;3.33;;;1.60;99.90;;;;;;4930771;28;20052;-81
2022/02/28 03:09:35;;;;;;;8.57;4.67;;;1.50;99.90;;;;;;4936741;28;20494;-81
2022/02/28 03:12:04;;;;;;;9.10;4.13;;;1.50;99.90;;;;;;4970633;28;20436;-82
2022/02/28 03:14:33;;;;;;;8.03;4.27;;;1.50;99.90;;;;;;4952305;28;20059;-81
2022/02/28 03:17:08;;;;;;;9.37;4.43;;;1.50;99.90;;;;;;4970498;28;20030;-81
2022/02/28 03:19:42;;;;;;;9.07;4.83;;;1.50;99.90;;;;;;4942150;28;20027;-81
2022/02/28 03:22:33;;;;;;;10.60;4.07;;;1.50;99.90;;;;;;4898996;29;20048;-81
2022/02/28 03:25:08;;;;;;;8.10;4.67;;;1.50;99.90;;;;;;4914474;29;21353;-80
2022/02/28 03:27:42;;;;;;;10.13;4.47;;;1.50;99.90;;;;;;4913022;29;20048;-81
2022/02/28 03:30:11;;;;;;;7.30;4.03;;;1.40;99.90;;;;;;4896149;29;20504;-81
2022/02/28 03:32:38;;;;;;;10.70;3.90;;;1.40;99.90;;;;;;4913675;29;20057;-82
2022/02/28 03:35:06;;;;;;;9.07;4.33;;;1.40;99.90;;;;;;4870599;29;20063;-81
2022/02/28 03:37:35;;;;;;;7.97;4.23;;;1.40;99.90;;;;;;4880242;29;20043;-81
2022/02/28 03:40:06;;;;;;;7.03;3.70;;;1.40;99.90;;;;;;4894049;29;20049;-82
2022/02/28 03:42:33;;;;;;;7.67;3.37;;;1.40;99.90;;;;;;4881451;29;20071;-82
2022/02/28 03:45:00;;;;;;;6.90;3.97;;;1.30;99.90;;;;;;4895931;29;20040;-81
2022/02/28 03:47:27;;;;;;;6.27;3.40;;;1.30;99.90;;;;;;4865174;29;20041;-81
2022/02/28 03:50:19;;;;;;;7.03;3.90;;;1.30;99.90;;;;;;4885052;29;20063;-82
2022/02/28 03:52:47;;;;;;;6.03;3.30;;;1.30;99.90;;;;;;4855237;29;20028;-81
2022/02/28 03:55:30;;;;;;;;;;;1.30;99.90;;;;;;4870401;29;20467;-81
2022/02/28 03:57:57;;;;;;;7.17;3.80;;;1.20;99.90;;;;;;4895882;29;19915;-81
2022/02/28 04:00:31;;;;;;;6.68;3.13;;;1.20;99.90;;;;;;4871125;29;20048;-82
2022/02/28 04:02:58;;;;;;;7.80;4.50;;;1.20;99.90;;;;;;4881562;29;20145;-81
2022/02/28 04:05:25;;;;;;;7.70;4.07;;;1.20;99.90;;;;;;4852662;29;20036;-81
2022/02/28 04:07:52;;;;;;;7.63;4.07;;;1.20;99.90;;;;;;4879820;29;20044;-81
2022/02/28 04:10:19;;;;;;;6.57;3.23;;;1.20;99.90;;;;;;4912160;29;20040;-81
2022/02/28 04:12:45;;;;;;;6.93;3.90;;;1.20;99.90;;;;;;4883615;29;20051;-82
2022/02/28 04:15:12;;;;;;;8.80;4.00;;;1.10;99.90;;;;;;4871089;29;20032;-81
2022/02/28 04:17:39;;;;;;;8.63;4.50;;;1.10;99.90;;;;;;4881322;29;20036;-81
2022/02/28 04:20:24;;;;;;;9.30;4.70;;;1.10;99.90;;;;;;4936743;28;20051;-82
2022/02/28 04:22:51;;;;;;;8.80;4.47;;;1.20;99.90;;;;;;4920338;28;20060;-81
2022/02/28 04:25:18;;;;;;;10.53;4.63;;;1.10;99.90;;;;;;4938459;28;20031;-81
2022/02/28 04:27:45;;;;;;;9.27;4.43;;;1.10;99.90;;;;;;4948420;28;20987;-81
2022/02/28 04:30:15;;;;;;;11.43;5.03;;;1.10;99.90;;;;;;4953410;28;20027;-81
2022/02/28 04:32:55;;;;;;;10.53;5.33;;;1.20;99.90;;;;;;4969493;28;20049;-81
2022/02/28 04:35:37;;;;;;;9.50;5.57;;;1.20;99.90;;;;;;4973460;28;20031;-82
2022/02/28 04:38:15;;;;;;;8.13;4.70;;;1.20;99.90;;;;;;4958534;28;20042;-82
2022/02/28 04:40:46;;;;;;;10.37;4.33;;;1.10;99.90;;;;;;4969245;28;20030;-81
2022/02/28 04:43:14;;;;;;;10.03;4.77;;;1.10;99.90;;;;;;4976633;28;20038;-81
2022/02/28 04:45:46;;;;;;;7.37;4.07;;;1.10;99.90;;;;;;4973836;28;20041;-80
2022/02/28 04:48:17;;;;;;;12.33;5.87;;;1.10;99.90;;;;;;4962058;28;20473;-81
2022/02/28 04:51:06;;;;;;;10.63;5.63;;;1.00;99.90;;;;;;4973907;28;20026;-81
2022/02/28 04:53:34;;;;;;;9.60;5.63;;;1.00;99.90;;;;;;4973076;28;20342;-81
2022/02/28 04:56:07;;;;;;;11.40;5.17;;;1.00;99.90;;;;;;4955709;28;20050;-81
2022/02/28 04:58:41;;;;;;;10.13;5.10;;;1.00;99.90;;;;;;4942889;28;20122;-80
2022/02/28 05:01:23;;;;;;;12.40;5.83;;;1.00;99.90;;;;;;4972978;28;20490;-80
2022/02/28 05:03:59;;;;;;;13.50;7.53;;;0.90;99.90;;;;;;4958819;28;20042;-80
2022/02/28 05:06:34;;;;;;;11.33;6.83;;;0.90;99.90;;;;;;4986077;28;20525;-81
2022/02/28 05:09:19;;;;;;;11.30;6.03;;;0.90;99.90;;;;;;4944071;28;20050;-81
2022/02/28 05:11:48;;;;;;;13.80;5.93;;;0.90;99.90;;;;;;4972626;28;20489;-80
2022/02/28 05:14:24;;;;;;;14.47;6.17;;;0.90;99.90;;;;;;4988158;28;20511;-80
2022/02/28 05:16:53;;;;;;;11.03;6.10;;;0.90;99.90;;;;;;4959716;28;20045;-81
2022/02/28 05:19:21;;;;;;;13.53;5.30;;;0.80;99.90;;;;;;4954414;28;20041;-80
2022/02/28 05:21:57;;;;;;;10.73;6.10;;;0.80;99.90;;;;;;4987872;28;20053;-80
2022/02/28 05:24:31;;;;;;;7.43;4.43;;;0.80;99.90;;;;;;4968723;28;20042;-81
2022/02/28 05:27:01;;;;;;;12.47;5.23;;;0.80;99.90;;;;;;4953431;28;20038;-80
2022/02/28 05:29:34;;;;;;;10.23;5.77;;;0.80;99.90;;;;;;4985707;28;20513;-81
2022/02/28 05:32:04;;;;;;;9.60;5.13;;;0.80;99.90;;;;;;4971306;28;20482;-81
2022/02/28 05:34:53;;;;;;;16.20;5.87;;;0.80;99.90;;;;;;4959352;28;20046;-81
2022/02/28 05:37:30;;;;;;;9.87;5.30;;;0.70;99.90;;;;;;4953979;28;20046;-81
2022/02/28 05:39:59;;;;;;;8.77;4.87;;;0.70;99.90;;;;;;4953637;28;20038;-82
2022/02/28 05:42:33;;;;;;;8.30;4.20;;;0.70;99.90;;;;;;4957323;28;20052;-81
2022/02/28 05:45:00;;;;;;;6.37;3.57;;;0.70;99.90;;;;;;4958352;28;20026;-81
2022/02/28 05:47:26;;;;;;;10.03;5.40;;;0.60;99.90;;;;;;4957683;28;20038;-81
2022/02/28 05:49:54;;;;;;;9.27;4.63;;;0.60;99.90;;;;;;4955016;28;20777;-81
2022/02/28 05:52:23;;;;;;;10.47;5.40;;;0.60;99.90;;;;;;4955807;28;20386;-81
2022/02/28 05:54:50;;;;;;;11.67;5.70;;;0.60;99.90;;;;;;4973525;28;20049;-81
2022/02/28 05:57:16;;;;;;;9.67;4.97;;;0.60;99.90;;;;;;4968881;28;20045;-81
2022/02/28 05:59:43;;;;;;;11.00;5.70;;;0.60;99.90;;;;;;4954090;28;20042;-81
2022/02/28 06:02:09;;;;;;;12.33;5.93;;;0.50;99.90;;;;;;4958005;28;20049;-81
2022/02/28 06:04:36;;;;;;;12.93;6.70;;;0.50;99.90;;;;;;4972529;28;20386;-81
2022/02/28 06:07:02;;;;;;;12.60;5.93;;;0.50;99.90;;;;;;4942626;28;20645;-81
2022/02/28 06:09:29;;;;;;;9.10;4.73;;;0.50;99.90;;;;;;4969131;28;20045;-81
2022/02/28 06:11:55;;;;;;;9.77;4.83;;;0.50;99.90;;;;;;4954593;28;20390;-81
2022/02/28 06:14:22;;;;;;;11.07;4.87;;;0.40;99.90;;;;;;4967896;28;20155;-81
2022/02/28 06:16:49;;;;;;;10.77;5.13;;;0.40;99.90;;;;;;4957487;28;20045;-80
2022/02/28 06:19:15;;;;;;;8.23;4.47;;;0.40;99.90;;;;;;4954774;28;20041;-81
2022/02/28 06:21:42;;;;;;;6.43;3.67;;;0.30;99.90;;;;;;4972841;28;20046;-81
2022/02/28 06:24:08;;;;;;;10.97;5.30;;;0.30;99.90;;;;;;4972890;28;20034;-81
2022/02/28 06:26:36;;;;;;;12.70;6.00;;;0.30;99.90;;;;;;4973219;28;20074;-81
2022/02/28 06:29:02;;;;;;;8.53;4.07;;;0.30;99.90;;;;;;4957969;28;20324;-80
2022/02/28 06:31:30;;;;;;;8.23;4.60;;;0.30;99.90;;;;;;4946263;28;21518;-81
2022/02/28 06:33:57;;;;;;;11.67;5.60;;;0.30;99.90;;;;;;4947274;28;20504;-82
2022/02/28 06:36:23;;;;;;;9.73;5.57;;;0.30;99.90;;;;;;4945963;28;20046;-80
2022/02/28 06:38:50;;;;;;;9.87;4.30;;;0.30;99.90;;;;;;4955837;28;20049;-81
2022/02/28 06:41:16;;;;;;;9.40;5.20;;;0.30;99.90;;;;;;4942801;28;20482;-81
2022/02/28 06:43:43;;;;;;;8.67;4.30;;;0.30;99.90;;;;;;4975550;28;20057;-79
2022/02/28 06:46:09;;;;;;;9.80;6.20;;;0.40;99.90;;;;;;4977193;28;20402;-81
2022/02/28 06:48:35;;;;;;;11.40;6.00;;;0.40;99.90;;;;;;4946345;28;20046;-81
2022/02/28 06:51:02;;;;;;;10.90;5.63;;;0.40;99.90;;;;;;4972953;28;20543;-81
2022/02/28 06:53:31;;;;;;;11.47;5.27;;;0.50;99.90;;;;;;4944291;28;20034;-82
2022/02/28 06:55:58;;;;;;;14.20;6.90;;;0.60;99.90;;;;;;4941874;28;20042;-81
2022/02/28 06:58:25;;;;;;;8.80;4.93;;;0.60;99.90;;;;;;4958232;28;20057;-82
2022/02/28 07:00:53;;;;;;;8.43;4.73;;;0.70;99.90;;;;;;4956922;28;20504;-81
2022/02/28 07:03:39;;;;;;;10.83;5.33;;;0.80;99.90;;;;;;4962189;28;20054;-82
2022/02/28 07:06:06;;;;;;;10.37;5.20;;;0.90;99.90;;;;;;4961377;28;20026;-81
2022/02/28 07:08:35;;;;;;;11.00;5.63;;;1.00;99.90;;;;;;4970349;28;20031;-81
2022/02/28 07:11:01;;;;;;;10.53;6.20;;;1.10;99.90;;;;;;4964905;28;20033;-81
2022/02/28 07:13:31;;;;;;;13.30;7.03;;;1.20;99.90;;;;;;4948925;28;20038;-81
2022/02/28 07:15:58;;;;;;;10.63;5.87;;;1.30;99.90;;;;;;4958353;28;20038;-81
2022/02/28 07:18:24;;;;;;;10.60;5.63;;;1.40;99.90;;;;;;4961120;28;20069;-81
2022/02/28 07:20:51;;;;;;;11.80;6.20;;;1.50;99.90;;;;;;4958375;28;20045;-81
2022/02/28 07:23:17;;;;;;;10.83;6.07;;;1.60;99.90;;;;;;4959806;28;20034;-81
2022/02/28 07:25:45;;;;;;;10.20;5.30;;;1.70;99.90;;;;;;4961047;28;20033;-80
2022/02/28 07:28:12;;;;;;;12.67;7.67;;;1.70;99.90;;;;;;4939587;28;20046;-80
2022/02/28 07:30:38;;;;;;;10.60;6.97;;;1.90;99.90;;;;;;4959079;28;20045;-80
2022/02/28 07:33:09;;;;;;;13.77;6.90;;;2.00;99.90;;;;;;4972478;28;20042;-81
2022/02/28 07:35:42;;;;;;;11.17;6.40;;;2.10;99.90;;;;;;4945131;28;20030;-82
2022/02/28 07:38:12;;;;;;;11.57;5.77;;;2.20;99.90;;;;;;4969019;28;20043;-82
2022/02/28 07:40:46;;;;;;;8.48;5.75;;;2.30;99.90;;;;;;4957288;28;20046;-82
2022/02/28 07:43:22;;;;;;;45.07;21.63;;;2.40;99.90;;;;;;4960178;28;20064;-81
2022/02/28 07:46:33;;;;;;;15.03;7.93;;;2.50;99.90;;;;;;4957640;28;20113;-81
2022/02/28 07:49:01;;;;;;;12.97;6.33;;;2.70;99.90;;;;;;4987971;28;20049;-81
2022/02/28 07:51:31;;;;;;;14.73;7.10;;;2.80;99.90;;;;;;4986456;28;20046;-80
2022/02/28 07:54:14;;;;;;;9.97;6.00;;;2.90;99.90;;;;;;4991045;28;20477;-82
2022/02/28 07:56:50;;;;;;;11.20;6.00;;;3.00;99.90;;;;;;4943594;28;20812;-80
2022/02/28 07:59:18;;;;;;;9.93;5.87;;;3.10;99.90;;;;;;4970702;28;20523;-81
2022/02/28 08:01:46;;;;;;;9.93;5.97;;;3.30;99.90;;;;;;4943362;28;20046;-79
2022/02/28 08:04:19;;;;;;;10.10;5.37;;;3.40;99.90;;;;;;4989722;28;20039;-80
2022/02/28 08:06:45;;;;;;;11.17;6.17;;;3.60;99.90;;;;;;4956596;28;21470;-81
2022/02/28 08:09:13;;;;;;;11.03;7.00;;;3.70;99.90;;;;;;4956049;28;20039;-80
2022/02/28 08:11:39;;;;;;;9.90;6.20;;;3.70;99.90;;;;;;4988588;28;20057;-82
2022/02/28 08:14:06;;;;;;;9.60;6.00;;;3.80;99.90;;;;;;4988016;28;20054;-80
2022/02/28 08:16:32;;;;;;;10.27;5.80;;;3.90;99.90;;;;;;4939315;28;20033;-79
2022/02/28 08:18:59;;;;;;;11.93;5.63;;;4.00;99.90;;;;;;4937480;28;20045;-79
2022/02/28 08:21:30;;;;;;;9.73;4.47;;;4.00;99.90;;;;;;4950713;28;20034;-80
2022/02/28 08:23:57;;;;;;;8.53;5.40;;;4.20;99.90;;;;;;4961278;28;20401;-81
2022/02/28 08:26:24;;;;;;;9.67;5.13;;;4.20;99.90;;;;;;4941146;28;20043;-81
2022/02/28 08:28:50;;;;;;;9.63;5.43;;;4.30;99.90;;;;;;4953487;28;20589;-82
2022/02/28 08:31:16;;;;;;;10.20;5.67;;;4.40;99.90;;;;;;4970833;28;20517;-80
2022/02/28 08:33:43;;;;;;;10.87;6.10;;;4.40;99.90;;;;;;4970825;28;20038;-80
2022/02/28 08:36:09;;;;;;;15.57;7.57;;;4.50;99.90;;;;;;4957256;28;20911;-81
2022/02/28 08:38:36;;;;;;;9.90;6.17;;;4.60;99.90;;;;;;4954322;28;20061;-81
2022/02/28 08:41:03;;;;;;;8.67;5.67;;;4.60;99.90;;;;;;4956468;28;20034;-80
2022/02/28 08:43:29;;;;;;;10.10;5.53;;;4.70;99.90;;;;;;4944393;28;20034;-80
2022/02/28 08:45:56;;;;;;;9.87;5.80;;;4.80;99.90;;;;;;4927241;28;20374;-79
2022/02/28 08:48:22;;;;;;;8.27;4.73;;;4.90;99.90;;;;;;4975575;28;20031;-80
2022/02/28 08:50:50;;;;;;;9.70;5.40;;;5.00;99.90;;;;;;4940691;28;20394;-78
2022/02/28 08:53:16;;;;;;;8.27;5.57;;;5.00;99.90;;;;;;4942200;28;20049;-79
2022/02/28 08:55:43;;;;;;;10.50;6.33;;;5.10;99.90;;;;;;4956761;28;20478;-79
2022/02/28 08:58:09;;;;;;;9.43;5.87;;;5.20;99.90;;;;;;4969496;28;20039;-79
2022/02/28 09:00:36;;;;;;;9.77;5.47;;;5.20;99.90;;;;;;4969917;28;20042;-78
2022/02/28 09:03:06;;;;;;;8.70;5.43;;;5.30;99.90;;;;;;4942492;28;20034;-78
2022/02/28 09:05:34;;;;;;;9.20;5.47;;;5.40;99.90;;;;;;4940669;28;20034;-78
2022/02/28 09:08:00;;;;;;;12.35;6.88;;;5.40;99.90;;;;;;4984234;28;21297;-77
2022/02/28 09:10:27;;;;;;;7.50;5.07;;;5.50;99.90;;;;;;4941556;28;20042;-79
2022/02/28 09:12:54;;;;;;;11.00;5.83;;;5.60;99.90;;;;;;4990745;28;20043;-80
2022/02/28 09:15:21;;;;;;;11.93;6.40;;;5.70;99.90;;;;;;4972987;28;20026;-82
2022/02/28 09:17:50;;;;;;;14.65;7.78;;;5.80;99.90;;;;;;4943374;28;20378;-80
2022/02/28 09:20:17;;;;;;;12.10;6.90;;;5.90;99.90;;;;;;4986565;28;20471;-82
2022/02/28 09:22:44;;;;;;;11.02;6.00;;;6.00;99.90;;;;;;4971802;28;20490;-80
2022/02/28 09:25:11;;;;;;;9.77;5.57;;;6.10;99.90;;;;;;4931664;28;20148;-80
2022/02/28 09:27:39;;;;;;;9.13;5.10;;;6.20;99.90;;;;;;4935364;28;20047;-80
2022/02/28 09:30:07;;;;;;;10.50;4.85;;;6.20;99.90;;;;;;4970290;28;20037;-81
2022/02/28 09:32:34;;;;;;;8.35;4.88;;;6.30;99.90;;;;;;4925694;28;22466;-81
2022/02/28 09:35:03;;;;;;;8.57;4.63;;;6.40;99.90;;;;;;4937152;28;20038;-80
2022/02/28 09:37:30;;;;;;;10.15;5.63;;;6.50;99.90;;;;;;4936341;28;20031;-76
2022/02/28 09:39:56;;;;;;;9.40;5.20;;;6.60;99.90;;;;;;4935137;28;20053;-80
2022/02/28 09:42:39;;;;;;;9.90;5.60;;;6.70;99.90;;;;;;4966381;28;20035;-79
2022/02/28 09:45:25;;;;;;;12.57;5.22;;;6.80;99.90;;;;;;4956672;28;20042;-79
2022/02/28 09:48:11;;;;;;;12.63;7.22;;;6.90;99.90;;;;;;4970547;28;20075;-80
2022/02/28 09:50:57;;;;;;;10.07;6.43;;;7.00;99.90;;;;;;4951268;28;20039;-79
2022/02/28 09:53:36;;;;;;;11.50;6.33;;;7.10;99.90;;;;;;4955230;28;20502;-79
2022/02/28 09:56:20;;;;;;;5.78;4.53;;;7.20;99.90;;;;;;4942098;28;20041;-79
2022/02/28 09:58:46;;;;;;;7.25;5.03;;;7.20;99.90;;;;;;4941502;28;20046;-79
2022/02/28 10:01:14;;;;;;;11.32;5.30;;;7.40;99.90;;;;;;4959330;28;20382;-79
2022/02/28 10:03:45;;;;;;;9.18;4.95;;;7.60;99.90;;;;;;4946291;28;20038;-79
2022/02/28 10:06:11;;;;;;;9.27;5.35;;;7.70;99.90;;;;;;4943414;28;20082;-79
2022/02/28 10:08:46;;;;;;;8.43;4.97;;;7.80;99.90;;;;;;4926045;28;20398;-79
2022/02/28 10:11:32;;;;;;;9.68;5.20;;;7.80;99.90;;;;;;4958156;28;20031;-81
2022/02/28 10:14:04;;;;;;;9.85;5.25;;;7.90;99.90;;;;;;4940205;28;20035;-81
2022/02/28 10:16:42;;;;;;;9.85;5.72;;;7.90;99.90;;;;;;4973262;28;20130;-81
2022/02/28 10:19:10;;;;;;;13.45;5.35;;;8.00;99.90;;;;;;4925964;28;20034;-81
2022/02/28 10:21:41;;;;;;;8.82;6.13;;;8.20;99.90;;;;;;4959375;28;20035;-80
2022/02/28 10:24:09;;;;;;;8.45;5.25;;;8.40;99.70;;;;;;4939659;28;20391;-79
2022/02/28 10:26:57;;;;;;;8.30;4.68;;;8.60;99.00;;;;;;4979237;28;20398;-81
2022/02/28 10:29:57;;;;;;;8.88;5.15;;;8.90;98.60;;;;;;4938538;28;20042;-79
2022/02/28 10:32:27;;;;;;;10.73;6.68;;;9.30;98.20;;;;;;4957498;28;20053;-81
2022/02/28 10:38:20;;;;;;;11.27;5.28;;;10.00;97.20;;;;;;4970718;28;20052;-80
2022/02/28 10:40:47;;;;;;;7.82;4.80;;;10.30;95.40;;;;;;4958245;28;20026;-81
2022/02/28 10:43:24;;;;;;;7.55;4.63;;;10.60;94.70;;;;;;4974386;28;20647;-81
2022/02/28 10:45:51;;;;;;;8.52;5.40;;;10.90;94.50;;;;;;4958382;28;20478;-81
2022/02/28 10:48:17;;;;;;;7.90;4.75;;;11.30;92.40;;;;;;4989323;28;20030;-81
2022/02/28 10:50:44;;;;;;;7.22;4.43;;;11.50;91.30;;;;;;4960264;28;20409;-80
2022/02/28 10:53:12;;;;;;;7.97;4.82;;;11.70;89.50;;;;;;4958058;28;20057;-79
2022/02/28 10:55:41;;;;;;;7.38;4.63;;;12.00;88.30;;;;;;4991165;28;20045;-82
2022/02/28 10:58:09;;;;;;;50.42;26.55;;;12.20;87.30;;;;;;4989312;28;21337;-81
2022/02/28 11:00:57;;;;;;;7.03;5.32;;;12.50;87.20;;;;;;4988319;28;20041;-79
2022/02/28 11:03:27;;;;;;;5.88;4.47;;;12.80;81.80;;;;;;4974917;28;20032;-80
2022/02/28 11:05:59;;;;;;;5.57;4.40;;;12.90;81.30;;;;;;4973394;28;20034;-80
2022/02/28 11:08:27;;;;;;;7.93;5.88;;;13.10;81.30;;;;;;4971551;28;20029;-80
2022/02/28 11:11:06;;;;;;;8.68;5.00;;;13.30;77.50;;;;;;4958611;28;20049;-80
2022/02/28 11:13:32;;;;;;;6.32;4.68;;;13.40;75.90;;;;;;4961613;28;20050;-80
2022/02/28 11:15:59;;;;;;;7.78;5.38;;;13.40;74.40;;;;;;4942780;28;20049;-81
2022/02/28 11:18:26;;;;;;;7.47;4.88;;;13.50;74.50;;;;;;4960944;28;20528;-80
2022/02/28 11:20:55;;;;;;;6.22;4.68;;;13.50;73.50;;;;;;4958857;28;20042;-77
2022/02/28 11:23:23;;;;;;;8.35;4.93;;;13.70;73.30;;;;;;4975359;28;20041;-80
2022/02/28 11:25:50;;;;;;;8.25;5.32;;;13.80;69.60;;;;;;4992802;28;20027;-84
2022/02/28 11:28:18;;;;;;;7.22;5.47;;;13.80;68.80;;;;;;4955457;28;20070;-84
2022/02/28 11:30:44;;;;;;;10.77;6.07;;;13.80;68.40;;;;;;4936056;28;20026;-81
2022/02/28 11:33:14;;;;;;;11.60;6.45;;;13.90;69.10;;;;;;4966347;28;20402;-85
2022/02/28 11:35:49;;;;;;;9.00;5.90;;;14.20;69.20;;;;;;4949141;28;20027;-81
2022/02/28 11:38:15;;;;;;;10.75;6.20;;;14.30;68.70;;;;;;4969107;28;20050;-82
2022/02/28 11:40:49;;;;;;;9.80;5.90;;;14.60;68.40;;;;;;4972230;28;20039;-81
2022/02/28 11:43:18;;;;;;;7.03;5.18;;;14.80;67.70;;;;;;4954267;28;20046;-82
2022/02/28 11:45:56;;;;;;;8.02;5.90;;;14.80;68.60;;;;;;4955197;28;20034;-78
2022/02/28 11:48:34;;;;;;;6.30;4.60;;;14.50;67.40;;;;;;4956838;28;20475;-81
2022/02/28 11:51:09;;;;;;;8.23;6.90;;;13.80;67.00;;;;;;4954432;28;20042;-79
2022/02/28 11:53:44;;;;;;;10.60;6.90;;;13.30;67.60;;;;;;4920482;28;20037;-79
2022/02/28 11:56:16;;;;;;;7.85;5.75;;;13.00;67.60;;;;;;4924623;28;20031;-80
2022/02/28 11:58:56;;;;;;;;;;;12.80;67.90;;;;;;4935729;28;20726;-80
2022/02/28 12:01:37;;;;;;;9.23;6.07;;;12.50;67.90;;;;;;4941037;28;19940;-82
2022/02/28 12:04:07;;;;;;;7.93;5.10;;;12.20;68.40;;;;;;4968234;28;20043;-82
2022/02/28 12:07:05;;;;;;;11.43;7.40;;;12.00;69.60;;;;;;4938894;28;20524;-81
2022/02/28 12:09:38;;;;;;;12.93;7.60;;;12.20;69.30;;;;;;4921866;28;20050;-81
2022/02/28 12:12:10;;;;;;;8.77;6.07;;;12.70;69.30;;;;;;4939345;28;20045;-82
2022/02/28 12:15:04;;;;;;;;;;;13.40;68.30;;;;;;4941608;28;20030;-83
2022/02/28 12:17:40;;;;;;;8.18;5.32;;;14.20;66.50;;;;;;4932744;28;20265;-81
2022/02/28 12:20:16;;;;;;;7.35;5.30;;;14.80;63.80;;;;;;4926367;28;20038;-81
2022/02/28 12:23:09;;;;;;;6.13;4.80;;;15.30;61.60;;;;;;4971061;28;20033;-83
2022/02/28 12:25:58;;;;;;;5.80;4.47;;;15.80;61.10;;;;;;4956019;28;20035;-82
2022/02/28 12:28:26;;;;;;;7.55;5.88;;;16.40;59.80;;;;;;4954070;28;20518;-83
2022/02/28 12:31:17;;;;;;;7.05;5.40;;;16.80;57.50;;;;;;4952132;28;20034;-78
2022/02/28 12:33:43;;;;;;;9.63;5.05;;;17.10;57.70;;;;;;4973473;28;20042;-79
2022/02/28 12:36:16;;;;;;;9.27;6.68;;;17.60;57.70;;;;;;4954715;28;20031;-79
2022/02/28 12:39:01;;;;;;;7.22;4.35;;;18.00;57.30;;;;;;4969978;28;21397;-80
2022/02/28 12:41:31;;;;;;;7.43;4.70;;;18.60;55.10;;;;;;4986937;28;20652;-80
2022/02/28 12:44:09;;;;;;;6.15;5.07;;;19.00;53.80;;;;;;4952067;28;20030;-80
2022/02/28 12:49:38;;;;;;;7.18;4.45;;;19.80;51.00;;;;;;4971505;28;20038;-81
2022/02/28 12:52:17;;;;;;;6.28;4.28;;;20.10;48.80;;;;;;4972178;28;20038;-80
2022/02/28 12:54:44;;;;;;;4.68;4.20;;;20.30;48.10;;;;;;4959821;28;20030;-79
2022/02/28 12:57:11;;;;;;;6.50;4.38;;;20.50;46.00;;;;;;4972151;28;20501;-79
2022/02/28 12:59:45;;;;;;;6.78;4.93;;;20.50;45.60;;;;;;4972253;28;20405;-79
2022/02/28 13:02:15;;;;;;;5.45;4.95;;;20.50;45.20;;;;;;4976522;28;20045;-80
2022/02/28 13:04:55;;;;;;;7.18;4.45;;;20.70;45.20;;;;;;4989396;28;20046;-80
2022/02/28 13:07:25;;;;;;;5.53;4.40;;;21.00;46.20;;;;;;4988576;28;20505;-81
2022/02/28 13:09:53;;;;;;;5.78;4.55;;;21.20;44.80;;;;;;4973249;28;20030;-80
2022/02/28 13:12:31;;;;;;;8.85;4.82;;;21.30;42.30;;;;;;4956564;28;20699;-81
2022/02/28 13:15:01;;;;;;;5.78;4.55;;;21.00;41.40;;;;;;4985099;28;20348;-81
2022/02/28 13:17:34;;;;;;;8.40;5.13;;;20.60;42.80;;;;;;4945552;28;20504;-81